Mc Farland, Kansas
Current Conditions -  °F | °C
As of 7:52 PM on Thursday 18 Dec 2014 (Local Time) from KMHK Reporting Station
Overcast Overcast  
Wind Chill: 32°   Ceiling: 1200
Heat Index: 32°   Visibility: 10mi
Dew Point: 29°   Wind: 3mph
Humidity: 88%   Direction: 60°ENE
Pressure: 30.24"   Gusts: NA
Location:  39.0167°N, 96.2886°W
Report Text: KMHK 190152Z 06003KT 10SM OVC012 00/M02 A3024 RMK AO2 SLP250 T00001017
Loading
Personal Weather Stations






























Interactive Weather Map New forecast layout! Learn more

10-Day Weather Forecast

Advertisements
Track Severe Weather on mobile